Time;durP1;ratioP1;P1;durP2;ratioP2;P2;SDS_P1;SDS_P2;PMS_P1;PMS_P2;Temp;Humidity;BMP_temperature;BMP_pressure;BME280_temperature;BME280_humidity;BME280_pressure;Samples;Min_cycle;Max_cycle;Signal;HPM_P1;HPM_P2
2023/05/18 00:00:38;;;;;;;8.05;3.25;;;;;;;;;;4959675;29;20205;-74
2023/05/18 00:03:04;;;;;;;7.82;3.03;;;;;;;;;;4960054;29;20169;-75
2023/05/18 00:05:32;;;;;;;6.80;3.33;;;;;;;;;;4959937;29;20180;-74
2023/05/18 00:07:59;;;;;;;5.63;3.45;;;;;;;;;;4959601;29;20282;-72
2023/05/18 00:10:25;;;;;;;13.07;4.32;;;;;;;;;;4959337;29;20216;-75
2023/05/18 00:12:51;;;;;;;8.80;3.30;;;;;;;;;;4960493;29;20196;-74
2023/05/18 00:15:17;;;;;;;9.77;3.00;;;;;;;;;;4959480;29;20180;-75
2023/05/18 00:17:44;;;;;;;14.75;4.28;;;;;;;;;;4959498;29;20176;-74
2023/05/18 00:20:10;;;;;;;4.30;3.22;;;;;;;;;;4959836;29;20214;-74
2023/05/18 00:22:41;;;;;;;9.80;4.03;;;;;;;;;;4960048;29;20211;-75
2023/05/18 00:25:07;;;;;;;13.65;4.00;;;;;;;;;;4959602;29;20676;-74
2023/05/18 00:27:33;;;;;;;4.65;2.90;;;;;;;;;;4959705;29;20562;-75
2023/05/18 00:29:59;;;;;;;8.90;3.42;;;;;;;;;;4959331;29;20184;-74
2023/05/18 00:32:25;;;;;;;10.50;3.97;;;;;;;;;;4959014;29;20177;-75
2023/05/18 00:34:51;;;;;;;6.22;2.88;;;;;;;;;;4960686;28;20187;-75
2023/05/18 00:37:17;;;;;;;7.00;3.67;;;;;;;;;;4963012;29;20181;-74
2023/05/18 00:39:43;;;;;;;6.78;3.17;;;;;;;;;;4963355;29;20169;-75
2023/05/18 00:42:10;;;;;;;8.40;3.08;;;;;;;;;;4963461;29;20233;-74
2023/05/18 00:44:36;;;;;;;4.50;3.05;;;;;;;;;;4962861;29;20187;-74
2023/05/18 00:47:02;;;;;;;7.05;4.20;;;;;;;;;;4963258;29;20649;-74
2023/05/18 00:49:28;;;;;;;8.30;3.55;;;;;;;;;;4962966;29;20181;-74
2023/05/18 00:51:54;;;;;;;8.05;3.28;;;;;;;;;;4962805;28;20243;-73
2023/05/18 00:54:20;;;;;;;6.70;2.83;;;;;;;;;;4963093;29;20181;-75
2023/05/18 00:56:47;;;;;;;8.27;3.33;;;;;;;;;;4963036;29;20184;-74
2023/05/18 00:59:14;;;;;;;7.95;3.75;;;;;;;;;;4963366;29;20188;-74
2023/05/18 01:01:44;;;;;;;6.97;3.40;;;;;;;;;;4963064;29;20201;-72
2023/05/18 01:04:13;;;;;;;6.95;3.40;;;;;;;;;;4963070;29;20193;-74
2023/05/18 01:06:39;;;;;;;12.05;3.38;;;;;;;;;;4962567;29;20212;-75
2023/05/18 01:09:06;;;;;;;5.65;3.10;;;;;;;;;;4962662;29;20195;-74
2023/05/18 01:11:32;;;;;;;6.32;3.65;;;;;;;;;;4963456;29;20209;-74
2023/05/18 01:14:03;;;;;;;5.33;3.50;;;;;;;;;;4962897;29;20173;-74
2023/05/18 01:16:33;;;;;;;9.20;2.92;;;;;;;;;;4962644;29;20413;-74
2023/05/18 01:19:04;;;;;;;10.82;4.22;;;;;;;;;;4962955;29;20181;-74
2023/05/18 01:21:50;;;;;;;10.57;3.25;;;;;;;;;;4962258;29;20271;-74
2023/05/18 01:24:36;;;;;;;7.13;3.53;;;;;;;;;;4962403;29;20219;-74
2023/05/18 01:27:03;;;;;;;8.75;3.97;;;;;;;;;;4963064;29;20259;-74
2023/05/18 01:29:30;;;;;;;7.78;3.72;;;;;;;;;;4962288;29;20184;-74
2023/05/18 01:31:57;;;;;;;14.57;4.25;;;;;;;;;;4962535;29;20181;-74
2023/05/18 01:34:23;;;;;;;10.02;3.35;;;;;;;;;;4962336;29;20245;-74
2023/05/18 01:36:49;;;;;;;5.88;2.95;;;;;;;;;;4962667;29;20177;-75
2023/05/18 01:39:15;;;;;;;10.38;4.10;;;;;;;;;;4962442;29;20263;-74
2023/05/18 01:41:45;;;;;;;7.32;3.25;;;;;;;;;;4961911;29;20244;-74
2023/05/18 01:44:17;;;;;;;12.18;4.05;;;;;;;;;;4962279;29;20176;-74
2023/05/18 01:46:57;;;;;;;8.05;3.95;;;;;;;;;;4961207;28;20198;-74
2023/05/18 01:49:29;;;;;;;14.07;3.45;;;;;;;;;;4961984;29;20188;-74
2023/05/18 01:51:56;;;;;;;9.95;4.57;;;;;;;;;;4962947;29;20229;-73
2023/05/18 01:54:24;;;;;;;5.43;3.67;;;;;;;;;;4962561;29;20224;-74
2023/05/18 01:56:52;;;;;;;6.82;3.63;;;;;;;;;;4962282;29;20181;-73
2023/05/18 01:59:18;;;;;;;8.30;4.18;;;;;;;;;;4961989;29;20240;-73
2023/05/18 02:01:45;;;;;;;3.95;3.05;;;;;;;;;;4962446;29;20209;-73
2023/05/18 02:04:11;;;;;;;9.63;4.03;;;;;;;;;;4961186;29;20708;-73
2023/05/18 02:06:37;;;;;;;11.90;3.40;;;;;;;;;;4961602;29;20276;-73
2023/05/18 02:09:04;;;;;;;13.43;4.40;;;;;;;;;;4962092;29;20188;-73
2023/05/18 02:11:30;;;;;;;9.55;3.88;;;;;;;;;;4962521;29;20200;-73
2023/05/18 02:13:56;;;;;;;9.45;4.00;;;;;;;;;;4962210;29;20235;-73
2023/05/18 02:16:22;;;;;;;10.80;3.80;;;;;;;;;;4961404;29;20277;-74
2023/05/18 02:18:48;;;;;;;7.88;3.92;;;;;;;;;;4961475;29;20255;-73
2023/05/18 02:21:14;;;;;;;9.27;3.65;;;;;;;;;;4961943;29;20208;-73
2023/05/18 02:23:41;;;;;;;12.50;4.60;;;;;;;;;;4961942;29;20231;-73
2023/05/18 02:26:07;;;;;;;9.90;4.43;;;;;;;;;;4961565;29;20188;-73
2023/05/18 02:28:33;;;;;;;9.25;3.83;;;;;;;;;;4961766;29;20184;-73
2023/05/18 02:31:10;;;;;;;5.28;3.50;;;;;;;;;;4961355;29;20519;-73
2023/05/18 02:33:39;;;;;;;9.63;3.85;;;;;;;;;;4961350;29;20586;-73
2023/05/18 02:36:09;;;;;;;7.05;3.78;;;;;;;;;;4960175;29;20237;-73
2023/05/18 02:38:39;;;;;;;8.35;4.00;;;;;;;;;;4961031;29;20173;-73
2023/05/18 02:41:05;;;;;;;5.63;3.90;;;;;;;;;;4960931;29;20283;-72
2023/05/18 02:43:31;;;;;;;11.32;3.75;;;;;;;;;;4961565;29;20177;-74
2023/05/18 02:45:57;;;;;;;6.85;3.95;;;;;;;;;;4961269;29;20215;-73
2023/05/18 02:48:24;;;;;;;11.32;4.57;;;;;;;;;;4961596;29;20177;-73
2023/05/18 02:50:50;;;;;;;7.70;4.30;;;;;;;;;;4960947;28;20755;-73
2023/05/18 02:53:16;;;;;;;14.57;4.72;;;;;;;;;;4961306;29;20181;-73
2023/05/18 02:55:42;;;;;;;8.80;4.00;;;;;;;;;;4960764;29;20189;-72
2023/05/18 02:58:09;;;;;;;8.55;4.50;;;;;;;;;;4961137;28;20185;-73
2023/05/18 03:00:35;;;;;;;8.10;4.20;;;;;;;;;;4961060;29;20209;-73
2023/05/18 03:03:01;;;;;;;10.00;4.50;;;;;;;;;;4960909;29;20298;-73
2023/05/18 03:05:27;;;;;;;9.18;4.68;;;;;;;;;;4961568;29;20192;-73
2023/05/18 03:07:53;;;;;;;11.93;4.65;;;;;;;;;;4961380;29;20576;-73
2023/05/18 03:10:20;;;;;;;10.68;4.60;;;;;;;;;;4962005;29;20179;-73
2023/05/18 03:12:47;;;;;;;6.15;4.30;;;;;;;;;;4960883;29;20245;-73
2023/05/18 03:15:14;;;;;;;13.23;5.53;;;;;;;;;;4961250;29;20672;-73
2023/05/18 03:17:41;;;;;;;7.00;4.60;;;;;;;;;;4961041;29;20185;-73
2023/05/18 03:20:09;;;;;;;10.93;5.60;;;;;;;;;;4961275;29;20183;-73
2023/05/18 03:22:35;;;;;;;11.45;4.65;;;;;;;;;;4960864;29;20181;-73
2023/05/18 03:25:01;;;;;;;12.88;5.35;;;;;;;;;;4961398;29;20539;-73
2023/05/18 03:27:27;;;;;;;5.95;4.55;;;;;;;;;;4960608;29;20276;-74
2023/05/18 03:29:55;;;;;;;16.75;4.78;;;;;;;;;;4960858;29;20177;-73
2023/05/18 03:32:21;;;;;;;7.43;4.80;;;;;;;;;;4961475;29;20188;-73
2023/05/18 03:34:47;;;;;;;7.97;4.50;;;;;;;;;;4960772;29;20180;-73
2023/05/18 03:37:14;;;;;;;7.03;5.03;;;;;;;;;;4960673;29;20192;-73
2023/05/18 03:39:40;;;;;;;10.00;4.60;;;;;;;;;;4960522;29;20264;-73
2023/05/18 03:42:06;;;;;;;8.93;4.38;;;;;;;;;;4960908;29;20248;-73
2023/05/18 03:44:32;;;;;;;13.43;5.07;;;;;;;;;;4961066;29;20181;-73
2023/05/18 03:46:58;;;;;;;16.15;5.60;;;;;;;;;;4960928;29;20234;-73
2023/05/18 03:49:25;;;;;;;13.77;6.10;;;;;;;;;;4961064;29;20181;-73
2023/05/18 03:51:53;;;;;;;11.80;4.80;;;;;;;;;;4960744;29;20747;-73
2023/05/18 03:54:19;;;;;;;7.78;4.85;;;;;;;;;;4960906;29;20185;-73
2023/05/18 03:56:47;;;;;;;19.77;6.43;;;;;;;;;;4960201;29;20629;-73
2023/05/18 03:59:13;;;;;;;14.35;4.95;;;;;;;;;;4960981;29;20192;-73
2023/05/18 04:01:43;;;;;;;11.27;4.70;;;;;;;;;;4960179;29;20204;-73
2023/05/18 04:04:16;;;;;;;9.00;5.35;;;;;;;;;;4960982;29;20191;-73
2023/05/18 04:06:48;;;;;;;9.45;5.18;;;;;;;;;;4960458;29;20251;-73
2023/05/18 04:09:16;;;;;;;11.73;6.00;;;;;;;;;;4959785;28;20205;-73
2023/05/18 04:11:42;;;;;;;9.93;5.10;;;;;;;;;;4963659;29;20184;-73
2023/05/18 04:14:08;;;;;;;10.65;5.80;;;;;;;;;;4965052;29;20177;-73
2023/05/18 04:16:34;;;;;;;13.00;5.28;;;;;;;;;;4964263;29;20181;-73
2023/05/18 04:19:02;;;;;;;15.20;6.07;;;;;;;;;;4964302;29;20188;-73
2023/05/18 04:21:35;;;;;;;13.68;5.88;;;;;;;;;;4964170;29;20275;-74
2023/05/18 04:24:05;;;;;;;15.57;6.60;;;;;;;;;;4965268;29;20177;-73
2023/05/18 04:26:35;;;;;;;14.35;4.95;;;;;;;;;;4964078;29;20637;-73
2023/05/18 04:29:01;;;;;;;9.82;5.55;;;;;;;;;;4964460;29;20661;-73
2023/05/18 04:31:28;;;;;;;7.88;5.32;;;;;;;;;;4964461;29;20543;-73
2023/05/18 04:33:54;;;;;;;11.10;5.32;;;;;;;;;;4964317;29;20204;-73
2023/05/18 04:36:24;;;;;;;9.35;6.30;;;;;;;;;;4964203;29;20185;-73
2023/05/18 04:38:50;;;;;;;8.15;5.55;;;;;;;;;;4964179;29;20273;-73
2023/05/18 04:41:19;;;;;;;11.13;6.15;;;;;;;;;;4964238;29;20214;-73
2023/05/18 04:43:46;;;;;;;13.98;6.07;;;;;;;;;;4963478;29;20187;-73
2023/05/18 04:46:15;;;;;;;13.48;6.97;;;;;;;;;;4963711;29;20607;-73
2023/05/18 04:48:41;;;;;;;12.20;6.30;;;;;;;;;;4963441;29;20189;-73
2023/05/18 04:51:07;;;;;;;8.38;5.72;;;;;;;;;;4964201;28;20234;-73
2023/05/18 04:53:34;;;;;;;9.15;5.97;;;;;;;;;;4963418;29;20205;-73
2023/05/18 04:56:00;;;;;;;14.95;6.30;;;;;;;;;;4963946;29;20217;-73
2023/05/18 04:58:26;;;;;;;15.02;6.65;;;;;;;;;;4964343;29;20181;-73
2023/05/18 05:00:53;;;;;;;12.50;6.15;;;;;;;;;;4963859;29;20635;-73
2023/05/18 05:03:19;;;;;;;11.85;6.95;;;;;;;;;;4964127;29;20183;-73
2023/05/18 05:05:45;;;;;;;21.80;6.18;;;;;;;;;;4963832;29;20256;-73
2023/05/18 05:08:11;;;;;;;9.60;6.60;;;;;;;;;;4963627;29;20575;-73
2023/05/18 05:10:37;;;;;;;10.02;6.57;;;;;;;;;;4963273;29;20196;-73
2023/05/18 05:13:03;;;;;;;13.93;7.15;;;;;;;;;;4963632;29;20185;-73
2023/05/18 05:15:29;;;;;;;11.02;6.90;;;;;;;;;;4963600;29;20180;-73
2023/05/18 05:17:56;;;;;;;16.33;7.85;;;;;;;;;;4963009;29;20257;-73
2023/05/18 05:20:23;;;;;;;12.40;7.20;;;;;;;;;;4963740;29;20218;-73
2023/05/18 05:22:49;;;;;;;14.82;7.38;;;;;;;;;;4962107;28;20204;-73
2023/05/18 05:25:15;;;;;;;10.30;7.00;;;;;;;;;;4963274;29;20188;-73
2023/05/18 05:27:41;;;;;;;10.43;6.82;;;;;;;;;;4963380;29;20180;-73
2023/05/18 05:30:07;;;;;;;18.05;7.90;;;;;;;;;;4963184;29;20183;-73
2023/05/18 05:32:34;;;;;;;13.10;7.90;;;;;;;;;;4963061;29;20247;-73
2023/05/18 05:35:00;;;;;;;12.35;8.18;;;;;;;;;;4963652;29;20216;-73
2023/05/18 05:37:26;;;;;;;11.98;6.78;;;;;;;;;;4963234;29;20192;-73
2023/05/18 05:39:53;;;;;;;12.00;6.25;;;;;;;;;;4963262;29;20184;-73
2023/05/18 05:42:19;;;;;;;14.70;6.30;;;;;;;;;;4964055;29;20223;-73
2023/05/18 05:44:45;;;;;;;9.77;6.80;;;;;;;;;;4962508;29;20271;-73
2023/05/18 05:47:11;;;;;;;13.15;7.10;;;;;;;;;;4963498;29;20181;-73
2023/05/18 05:49:37;;;;;;;11.23;6.75;;;;;;;;;;4962502;29;20185;-73
2023/05/18 05:52:03;;;;;;;18.35;7.60;;;;;;;;;;4963136;28;20284;-73
2023/05/18 05:54:29;;;;;;;10.07;5.75;;;;;;;;;;4962538;29;20181;-73
2023/05/18 05:56:55;;;;;;;8.27;5.80;;;;;;;;;;4962883;29;20177;-73
2023/05/18 05:59:21;;;;;;;10.35;5.45;;;;;;;;;;4963185;29;20255;-73
2023/05/18 06:01:47;;;;;;;14.20;6.10;;;;;;;;;;4962720;29;20239;-73
2023/05/18 06:04:14;;;;;;;9.30;6.25;;;;;;;;;;4962334;29;20185;-73
2023/05/18 06:06:42;;;;;;;9.85;5.18;;;;;;;;;;4962246;29;20187;-74
2023/05/18 06:09:09;;;;;;;11.55;4.72;;;;;;;;;;4962265;29;20238;-73
2023/05/18 06:11:35;;;;;;;10.45;5.05;;;;;;;;;;4962081;29;20216;-74
2023/05/18 06:14:01;;;;;;;10.35;6.13;;;;;;;;;;4962315;29;20181;-73
2023/05/18 06:16:27;;;;;;;5.88;4.72;;;;;;;;;;4962016;29;20184;-73
2023/05/18 06:18:53;;;;;;;9.32;4.28;;;;;;;;;;4961996;29;20560;-73
2023/05/18 06:21:19;;;;;;;10.15;4.68;;;;;;;;;;4962172;29;20224;-73
2023/05/18 06:23:45;;;;;;;7.00;4.18;;;;;;;;;;4961632;29;20189;-73
2023/05/18 06:26:11;;;;;;;8.45;3.65;;;;;;;;;;4962268;29;20540;-73
2023/05/18 06:28:37;;;;;;;6.75;4.15;;;;;;;;;;4962139;29;20593;-74
2023/05/18 06:31:03;;;;;;;12.32;3.90;;;;;;;;;;4961633;29;20180;-73
2023/05/18 06:33:30;;;;;;;8.63;3.50;;;;;;;;;;4961609;28;20701;-73
2023/05/18 06:35:56;;;;;;;5.32;3.30;;;;;;;;;;4961756;29;20211;-73
2023/05/18 06:38:22;;;;;;;8.40;3.78;;;;;;;;;;4959003;29;20240;-81
2023/05/18 06:40:48;;;;;;;12.32;3.60;;;;;;;;;;4960942;29;20209;-81
2023/05/18 06:43:14;;;;;;;9.40;3.88;;;;;;;;;;4961357;29;20181;-73
2023/05/18 06:45:41;;;;;;;11.32;4.40;;;;;;;;;;4961577;29;20184;-74
2023/05/18 06:48:07;;;;;;;7.30;3.45;;;;;;;;;;4961102;29;20630;-73
2023/05/18 06:50:33;;;;;;;4.10;2.92;;;;;;;;;;4961276;29;20240;-72
2023/05/18 06:52:59;;;;;;;11.18;4.40;;;;;;;;;;4961338;29;20189;-73
2023/05/18 06:55:26;;;;;;;6.70;4.07;;;;;;;;;;4961048;29;20176;-73
2023/05/18 06:57:55;;;;;;;12.93;4.72;;;;;;;;;;4960906;29;20181;-74
2023/05/18 07:00:21;;;;;;;8.82;3.40;;;;;;;;;;4961169;29;20201;-73
2023/05/18 07:02:47;;;;;;;10.80;3.60;;;;;;;;;;4960825;29;20278;-73
2023/05/18 07:05:13;;;;;;;5.50;3.35;;;;;;;;;;4961507;29;20505;-73
2023/05/18 07:07:39;;;;;;;7.63;3.53;;;;;;;;;;4960870;29;20184;-74
2023/05/18 07:10:06;;;;;;;13.15;3.55;;;;;;;;;;4961222;29;20181;-74
2023/05/18 07:12:32;;;;;;;10.65;3.70;;;;;;;;;;4959439;29;20264;-74
2023/05/18 07:14:58;;;;;;;6.38;3.42;;;;;;;;;;4960881;29;20180;-74
2023/05/18 07:17:24;;;;;;;7.35;3.17;;;;;;;;;;4961274;29;20215;-73
2023/05/18 07:19:50;;;;;;;11.27;3.75;;;;;;;;;;4961099;29;20189;-74
2023/05/18 07:22:16;;;;;;;9.10;2.90;;;;;;;;;;4960432;29;20213;-74
2023/05/18 07:24:42;;;;;;;9.90;3.47;;;;;;;;;;4960261;29;20228;-74
2023/05/18 07:27:08;;;;;;;9.38;3.70;;;;;;;;;;4961005;29;20181;-74
2023/05/18 07:29:34;;;;;;;8.50;3.05;;;;;;;;;;4960256;29;20298;-73
2023/05/18 07:32:00;;;;;;;6.75;2.85;;;;;;;;;;4960635;29;20494;-74
2023/05/18 07:34:26;;;;;;;12.35;4.45;;;;;;;;;;4960753;29;20176;-73
2023/05/18 07:36:53;;;;;;;12.40;3.88;;;;;;;;;;4960608;29;20212;-74
2023/05/18 07:39:19;;;;;;;6.20;3.15;;;;;;;;;;4960101;29;20189;-74
2023/05/18 07:41:47;;;;;;;8.48;3.30;;;;;;;;;;4960020;29;20217;-74
2023/05/18 07:44:13;;;;;;;5.30;3.15;;;;;;;;;;4960097;28;20216;-74
2023/05/18 07:46:40;;;;;;;6.80;3.72;;;;;;;;;;4960125;29;20224;-77
2023/05/18 07:49:06;;;;;;;7.97;3.17;;;;;;;;;;4960198;29;20188;-74
2023/05/18 07:51:33;;;;;;;7.85;3.28;;;;;;;;;;4960135;28;20641;-74
2023/05/18 07:53:59;;;;;;;6.70;3.42;;;;;;;;;;4959199;29;20185;-74
2023/05/18 07:56:25;;;;;;;6.28;3.70;;;;;;;;;;4960342;29;20185;-74
2023/05/18 07:58:51;;;;;;;9.50;3.40;;;;;;;;;;4960284;29;20173;-74
2023/05/18 08:01:18;;;;;;;6.50;2.40;;;;;;;;;;4959969;29;20467;-73
2023/05/18 08:03:44;;;;;;;11.17;3.00;;;;;;;;;;4960181;29;20409;-74
2023/05/18 08:06:10;;;;;;;6.37;2.73;;;;;;;;;;4960415;29;20492;-74
2023/05/18 08:08:36;;;;;;;10.00;3.00;;;;;;;;;;4959753;29;20396;-74
2023/05/18 08:11:03;;;;;;;6.97;2.53;;;;;;;;;;4959118;29;20420;-74
2023/05/18 08:13:29;;;;;;;8.73;2.87;;;;;;;;;;4959733;29;20411;-73
2023/05/18 08:15:55;;;;;;;6.33;2.40;;;;;;;;;;4959813;29;20413;-74
2023/05/18 08:18:21;;;;;;;8.73;2.83;;;;;;;;;;4959717;29;20417;-73
2023/05/18 08:20:48;;;;;;;6.30;2.17;;;;;;;;;;4959309;29;20475;-74
2023/05/18 08:23:14;;;;;;;5.63;3.17;;;;;;;;;;4959444;29;20387;-74
2023/05/18 08:25:40;;;;;;;10.47;2.73;;;;;;;;;;4959521;29;20409;-74
2023/05/18 08:28:06;;;;;;;6.17;2.73;;;;;;;;;;4942290;29;20912;-74
2023/05/18 08:30:32;;;;;;;10.23;3.10;;;;;;;;;;4959589;29;20422;-74
2023/05/18 08:32:58;;;;;;;6.43;2.83;;;;;;;;;;4958401;29;20404;-74
2023/05/18 08:35:24;;;;;;;11.00;3.40;;;;;;;;;;4959476;29;20456;-74
2023/05/18 08:37:50;;;;;;;4.00;2.93;;;;;;;;;;4959003;29;20403;-74
2023/05/18 08:40:17;;;;;;;4.57;3.90;;;;;;;;;;4942137;29;21015;-74
2023/05/18 08:43:17;;;;;;;9.07;2.60;;;;;;;;;;4958950;29;20399;-77
2023/05/18 08:45:48;;;;;;;8.23;2.87;;;;;;;;;;4937326;29;20399;-75
2023/05/18 08:48:15;;;;;;;5.87;2.43;;;;;;;;;;4958914;29;20408;-74
2023/05/18 08:50:42;;;;;;;5.87;2.60;;;;;;;;;;4958550;29;20480;-74
2023/05/18 08:53:10;;;;;;;4.20;2.47;;;;;;;;;;4958267;29;20380;-74
2023/05/18 08:55:36;;;;;;;7.47;2.70;;;;;;;;;;4958781;28;20416;-74
2023/05/18 08:58:05;;;;;;;5.43;2.63;;;;;;;;;;4961956;29;20387;-74
2023/05/18 09:00:32;;;;;;;5.33;2.90;;;;;;;;;;4961788;29;20537;-73
2023/05/18 09:02:59;;;;;;;4.77;2.30;;;;;;;;;;4961701;29;20887;-73
2023/05/18 09:05:25;;;;;;;6.13;2.77;;;;;;;;;;4961867;29;20415;-74
2023/05/18 09:07:51;;;;;;;6.77;2.90;;;;;;;;;;4961490;29;20412;-74
2023/05/18 09:10:17;;;;;;;6.10;2.10;;;;;;;;;;4961691;29;20404;-73
2023/05/18 09:12:45;;;;;;;7.80;2.47;;;;;;;;;;4961786;29;20407;-73
2023/05/18 09:15:12;;;;;;;5.10;2.23;;;;;;;;;;4961293;29;20420;-73
2023/05/18 09:17:38;;;;;;;5.80;3.20;;;;;;;;;;4961501;29;20419;-73
2023/05/18 09:20:04;;;;;;;8.63;2.80;;;;;;;;;;4961384;29;20939;-74
2023/05/18 09:22:31;;;;;;;7.77;2.30;;;;;;;;;;4961576;29;20495;-73
2023/05/18 09:24:57;;;;;;;7.03;2.27;;;;;;;;;;4961388;29;20400;-73
2023/05/18 09:27:23;;;;;;;9.37;2.37;;;;;;;;;;4961052;29;20483;-73
2023/05/18 09:29:53;;;;;;;6.30;2.53;;;;;;;;;;4961163;29;20444;-74
2023/05/18 09:32:19;;;;;;;6.97;2.60;;;;;;;;;;4961050;29;20387;-73
2023/05/18 09:34:47;;;;;;;8.93;2.43;;;;;;;;;;4960983;29;20436;-73
2023/05/18 09:37:15;;;;;;;3.70;2.23;;;;;;;;;;4960569;29;20516;-74
2023/05/18 09:39:42;;;;;;;5.43;2.50;;;;;;;;;;4960679;29;20436;-73
2023/05/18 09:42:08;;;;;;;8.87;3.10;;;;;;;;;;4960126;29;20475;-73
2023/05/18 09:44:34;;;;;;;5.90;2.10;;;;;;;;;;4960251;29;20405;-73
2023/05/18 09:47:00;;;;;;;7.40;2.93;;;;;;;;;;4960166;29;20772;-73
2023/05/18 09:49:29;;;;;;;7.60;2.37;;;;;;;;;;4960318;29;20425;-73
2023/05/18 09:51:58;;;;;;;4.57;2.67;;;;;;;;;;4959653;29;20500;-74
2023/05/18 09:54:25;;;;;;;6.30;2.70;;;;;;;;;;4959592;29;20412;-74
2023/05/18 09:56:51;;;;;;;12.77;3.10;;;;;;;;;;4959697;29;20404;-74
2023/05/18 09:59:17;;;;;;;7.23;2.77;;;;;;;;;;4959496;29;20412;-73
2023/05/18 10:02:04;;;;;;;7.00;2.50;;;;;;;;;;4960025;29;20468;-73
2023/05/18 10:04:37;;;;;;;10.30;2.50;;;;;;;;;;4960164;29;20471;-73
2023/05/18 10:07:08;;;;;;;10.27;3.23;;;;;;;;;;4959611;28;20408;-73
2023/05/18 10:09:34;;;;;;;7.37;2.20;;;;;;;;;;4959197;29;20468;-73
2023/05/18 10:12:00;;;;;;;6.57;2.40;;;;;;;;;;4959232;29;20823;-74
2023/05/18 10:14:29;;;;;;;6.27;2.80;;;;;;;;;;4959546;29;20419;-73
2023/05/18 10:16:55;;;;;;;8.63;2.90;;;;;;;;;;4959085;29;20444;-74
2023/05/18 10:19:21;;;;;;;7.70;2.90;;;;;;;;;;4959680;29;20424;-73
2023/05/18 10:21:48;;;;;;;7.73;3.20;;;;;;;;;;4959068;29;20472;-73
2023/05/18 10:24:17;;;;;;;6.27;3.00;;;;;;;;;;4959300;29;20436;-73
2023/05/18 10:26:43;;;;;;;7.33;2.80;;;;;;;;;;4959254;29;20412;-73
2023/05/18 10:29:09;;;;;;;3.80;2.40;;;;;;;;;;4958728;29;20983;-74
2023/05/18 10:31:36;;;;;;;5.27;2.80;;;;;;;;;;4959255;29;20445;-73
2023/05/18 10:34:03;;;;;;;6.33;2.10;;;;;;;;;;4958802;29;20450;-73
2023/05/18 10:36:31;;;;;;;7.27;2.60;;;;;;;;;;4958867;29;20413;-74
2023/05/18 10:38:59;;;;;;;4.83;3.13;;;;;;;;;;4958954;29;20424;-73
2023/05/18 10:41:26;;;;;;;2.83;2.10;;;;;;;;;;4958858;29;20460;-73
2023/05/18 10:43:53;;;;;;;3.90;2.20;;;;;;;;;;4958001;29;20839;-74
2023/05/18 10:46:20;;;;;;;5.80;2.33;;;;;;;;;;4958069;29;20499;-73
2023/05/18 10:48:47;;;;;;;6.43;2.67;;;;;;;;;;4958304;29;20421;-73
2023/05/18 10:51:14;;;;;;;5.80;2.40;;;;;;;;;;4958307;29;20476;-73
2023/05/18 10:53:42;;;;;;;4.70;2.70;;;;;;;;;;4958837;29;20554;-73
2023/05/18 10:56:09;;;;;;;5.10;2.27;;;;;;;;;;4958757;29;20448;-73
2023/05/18 10:58:36;;;;;;;7.63;2.60;;;;;;;;;;4958265;29;20920;-73
2023/05/18 11:01:05;;;;;;;5.47;2.20;;;;;;;;;;4958178;29;20490;-74
2023/05/18 11:03:32;;;;;;;10.10;3.10;;;;;;;;;;4958236;29;20446;-74
2023/05/18 11:06:13;;;;;;;6.97;2.70;;;;;;;;;;4958474;29;20424;-73
2023/05/18 11:08:46;;;;;;;6.80;2.63;;;;;;;;;;4958208;29;20407;-73
2023/05/18 11:11:12;;;;;;;7.17;2.73;;;;;;;;;;4957937;29;20955;-73
2023/05/18 11:13:42;;;;;;;6.37;2.30;;;;;;;;;;4958448;29;20767;-73
2023/05/18 11:16:08;;;;;;;6.60;2.20;;;;;;;;;;4958150;29;20777;-73
2023/05/18 11:18:39;;;;;;;6.87;2.23;;;;;;;;;;4958274;28;20413;-73
2023/05/18 11:21:19;;;;;;;6.73;2.70;;;;;;;;;;4958211;29;20551;-73
2023/05/18 11:24:04;;;;;;;8.23;2.87;;;;;;;;;;4958253;29;20411;-73
2023/05/18 11:26:30;;;;;;;6.17;2.70;;;;;;;;;;4958313;29;20405;-73
2023/05/18 11:28:58;;;;;;;7.97;2.40;;;;;;;;;;4957865;29;20412;-73
2023/05/18 11:31:42;;;;;;;6.37;2.20;;;;;;;;;;4958372;29;20768;-73
2023/05/18 11:34:31;;;;;;;7.37;2.43;;;;;;;;;;4957905;29;20416;-73
2023/05/18 11:36:57;;;;;;;3.63;2.03;;;;;;;;;;4957964;29;20405;-73
2023/05/18 11:39:24;;;;;;;5.37;2.63;;;;;;;;;;4958708;29;20499;-73
2023/05/18 11:41:59;;;;;;;8.57;2.70;;;;;;;;;;4958122;29;20480;-73
2023/05/18 11:44:27;;;;;;;5.67;2.83;;;;;;;;;;4957850;29;20411;-73
2023/05/18 11:46:55;;;;;;;6.57;2.80;;;;;;;;;;4958281;29;20420;-73
2023/05/18 11:49:47;;;;;;;5.17;2.10;;;;;;;;;;4957725;29;20444;-74
2023/05/18 11:52:16;;;;;;;6.80;2.27;;;;;;;;;;4956047;28;20476;-73
2023/05/18 11:54:45;;;;;;;4.80;2.47;;;;;;;;;;4957666;29;20953;-73
2023/05/18 11:57:12;;;;;;;10.00;3.17;;;;;;;;;;4957244;29;20412;-73
2023/05/18 11:59:42;;;;;;;3.70;2.37;;;;;;;;;;4957502;29;20975;-73
2023/05/18 12:02:10;;;;;;;6.53;2.73;;;;;;;;;;4956868;29;20476;-73
2023/05/18 12:04:41;;;;;;;8.40;3.00;;;;;;;;;;4957935;29;20421;-73
2023/05/18 12:07:07;;;;;;;5.90;2.20;;;;;;;;;;4957158;29;20436;-73
2023/05/18 12:09:34;;;;;;;6.77;2.57;;;;;;;;;;4957599;29;20419;-73
2023/05/18 12:12:01;;;;;;;5.00;2.50;;;;;;;;;;4956689;29;20424;-74
2023/05/18 12:14:27;;;;;;;7.40;3.10;;;;;;;;;;4957333;29;20511;-73
2023/05/18 12:16:54;;;;;;;5.90;2.30;;;;;;;;;;4957472;29;20808;-72
2023/05/18 12:19:22;;;;;;;4.73;2.40;;;;;;;;;;4957165;29;20434;-74
2023/05/18 12:21:48;;;;;;;6.80;2.77;;;;;;;;;;4957223;29;20531;-73
2023/05/18 12:24:15;;;;;;;6.80;3.10;;;;;;;;;;4957122;29;20416;-74
2023/05/18 12:26:41;;;;;;;8.80;2.80;;;;;;;;;;4957235;29;20570;-73
2023/05/18 12:29:09;;;;;;;9.47;3.20;;;;;;;;;;4957005;29;20425;-74
2023/05/18 12:31:39;;;;;;;9.23;2.90;;;;;;;;;;4959294;28;20424;-74
2023/05/18 12:34:06;;;;;;;4.90;2.10;;;;;;;;;;4960853;29;20475;-74
2023/05/18 12:36:32;;;;;;;6.63;2.50;;;;;;;;;;4961009;29;20511;-74
2023/05/18 12:39:01;;;;;;;5.33;2.60;;;;;;;;;;4960358;29;20487;-74
2023/05/18 12:41:27;;;;;;;4.13;2.30;;;;;;;;;;4960096;29;20464;-74
2023/05/18 12:43:53;;;;;;;5.50;2.67;;;;;;;;;;4960632;29;20407;-74
2023/05/18 12:46:22;;;;;;;4.20;2.57;;;;;;;;;;4960560;29;21015;-74
2023/05/18 12:48:55;;;;;;;9.87;3.27;;;;;;;;;;4960578;29;20419;-74
2023/05/18 12:51:21;;;;;;;11.30;2.83;;;;;;;;;;4959890;28;20840;-74
2023/05/18 12:53:50;;;;;;;7.77;3.00;;;;;;;;;;4960555;29;20754;-73
2023/05/18 12:56:17;;;;;;;6.70;3.03;;;;;;;;;;4959501;29;20471;-74
2023/05/18 12:58:58;;;;;;;6.27;3.30;;;;;;;;;;4959844;29;20457;-74
2023/05/18 13:01:25;;;;;;;6.20;2.50;;;;;;;;;;4959792;29;20497;-74
2023/05/18 13:03:58;;;;;;;6.67;2.97;;;;;;;;;;4959500;29;20407;-73
2023/05/18 13:06:24;;;;;;;6.27;2.70;;;;;;;;;;4959548;29;20404;-75
2023/05/18 13:08:54;;;;;;;5.00;2.90;;;;;;;;;;4959629;29;20491;-74
2023/05/18 13:11:24;;;;;;;8.23;2.90;;;;;;;;;;4959644;29;20523;-74
2023/05/18 13:14:03;;;;;;;5.30;2.93;;;;;;;;;;4959706;29;20424;-74
2023/05/18 13:16:30;;;;;;;4.80;2.60;;;;;;;;;;4959518;29;20547;-74
2023/05/18 13:18:59;;;;;;;11.57;2.73;;;;;;;;;;4959260;29;20455;-72
2023/05/18 13:21:26;;;;;;;6.63;3.00;;;;;;;;;;4959319;29;20816;-72
2023/05/18 13:23:52;;;;;;;6.10;2.87;;;;;;;;;;4959466;29;20439;-72
2023/05/18 13:26:18;;;;;;;8.03;2.80;;;;;;;;;;4959301;29;20390;-72
2023/05/18 13:28:46;;;;;;;7.87;3.60;;;;;;;;;;4959258;29;21003;-72
2023/05/18 13:31:12;;;;;;;5.27;3.00;;;;;;;;;;4958906;29;20444;-73
2023/05/18 13:33:38;;;;;;;8.03;3.33;;;;;;;;;;4959091;29;20412;-72
2023/05/18 13:36:04;;;;;;;7.23;3.03;;;;;;;;;;4958971;29;20778;-72
2023/05/18 13:38:34;;;;;;;7.20;3.60;;;;;;;;;;4959340;29;20744;-72
2023/05/18 13:41:00;;;;;;;7.83;2.80;;;;;;;;;;4958978;29;20551;-73
2023/05/18 13:43:26;;;;;;;8.17;2.93;;;;;;;;;;4957896;28;20450;-72
2023/05/18 13:45:52;;;;;;;6.97;3.87;;;;;;;;;;4958762;29;20483;-73
2023/05/18 13:48:18;;;;;;;7.77;3.10;;;;;;;;;;4958367;29;20413;-73
2023/05/18 13:50:45;;;;;;;4.90;2.73;;;;;;;;;;4958871;28;20468;-73
2023/05/18 13:53:11;;;;;;;6.60;2.70;;;;;;;;;;4958838;29;21019;-73
2023/05/18 13:55:37;;;;;;;9.73;3.13;;;;;;;;;;4958934;29;20763;-73
2023/05/18 13:58:03;;;;;;;5.50;2.60;;;;;;;;;;4958867;29;20475;-73
2023/05/18 14:00:31;;;;;;;5.37;3.30;;;;;;;;;;4958602;29;20384;-73
2023/05/18 14:02:57;;;;;;;7.80;2.90;;;;;;;;;;4958204;29;20499;-73
2023/05/18 14:05:24;;;;;;;11.70;2.87;;;;;;;;;;4958493;29;20404;-73
2023/05/18 14:07:53;;;;;;;6.27;2.50;;;;;;;;;;4958585;29;20405;-73
2023/05/18 14:10:20;;;;;;;6.40;3.00;;;;;;;;;;4958333;29;20781;-73
2023/05/18 14:12:46;;;;;;;6.33;2.97;;;;;;;;;;4958701;29;20409;-73
2023/05/18 14:15:12;;;;;;;6.40;3.23;;;;;;;;;;4958297;29;20379;-73
2023/05/18 14:17:38;;;;;;;8.23;3.37;;;;;;;;;;4958135;29;20412;-73
2023/05/18 14:20:05;;;;;;;7.17;2.67;;;;;;;;;;4958084;29;20419;-73
2023/05/18 14:22:31;;;;;;;7.83;3.40;;;;;;;;;;4958053;29;20534;-73
2023/05/18 14:24:57;;;;;;;9.97;3.70;;;;;;;;;;4958474;29;20416;-73
2023/05/18 14:27:23;;;;;;;5.63;2.40;;;;;;;;;;4958045;29;21055;-73
2023/05/18 14:29:50;;;;;;;6.40;3.23;;;;;;;;;;4957817;29;20492;-73
2023/05/18 14:32:16;;;;;;;6.30;3.03;;;;;;;;;;4957841;29;20419;-73
2023/05/18 14:34:42;;;;;;;6.00;2.97;;;;;;;;;;4958126;29;20408;-73
2023/05/18 14:37:08;;;;;;;9.03;5.63;;;;;;;;;;4958316;29;20409;-73
2023/05/18 14:39:34;;;;;;;7.87;3.60;;;;;;;;;;4958342;29;20424;-73